sensor_id;sensor_type;location;lat;lon;timestamp;P1;durP1;ratioP1;P2;durP2;ratioP2
22768;SDS011;13001;51.968;5.918;2023-01-15T00:00:55;212.60;;;199.47;;
22768;SDS011;13001;51.968;5.918;2023-01-15T00:03:22;228.83;;;214.07;;
22768;SDS011;13001;51.968;5.918;2023-01-15T00:05:49;227.87;;;213.33;;
22768;SDS011;13001;51.968;5.918;2023-01-15T00:08:17;225.10;;;210.43;;
22768;SDS011;13001;51.968;5.918;2023-01-15T00:10:44;206.43;;;193.47;;
22768;SDS011;13001;51.968;5.918;2023-01-15T00:13:12;204.17;;;191.40;;
22768;SDS011;13001;51.968;5.918;2023-01-15T00:15:39;202.90;;;189.77;;
22768;SDS011;13001;51.968;5.918;2023-01-15T00:18:06;296.37;;;276.50;;
22768;SDS011;13001;51.968;5.918;2023-01-15T00:20:33;212.80;;;199.45;;
22768;SDS011;13001;51.968;5.918;2023-01-15T00:23:01;145.63;;;136.57;;
22768;SDS011;13001;51.968;5.918;2023-01-15T00:25:28;162.47;;;152.10;;
22768;SDS011;13001;51.968;5.918;2023-01-15T00:28:13;180.23;;;169.10;;
22768;SDS011;13001;51.968;5.918;2023-01-15T00:30:40;204.03;;;191.50;;
22768;SDS011;13001;51.968;5.918;2023-01-15T00:33:08;197.53;;;185.33;;
22768;SDS011;13001;51.968;5.918;2023-01-15T00:35:35;231.72;;;216.35;;
22768;SDS011;13001;51.968;5.918;2023-01-15T00:38:03;230.20;;;215.43;;
22768;SDS011;13001;51.968;5.918;2023-01-15T00:40:30;266.63;;;249.52;;
22768;SDS011;13001;51.968;5.918;2023-01-15T00:42:57;306.27;;;286.30;;
22768;SDS011;13001;51.968;5.918;2023-01-15T00:45:24;338.17;;;316.37;;
22768;SDS011;13001;51.968;5.918;2023-01-15T00:47:52;350.80;;;328.52;;
22768;SDS011;13001;51.968;5.918;2023-01-15T00:50:19;364.40;;;341.20;;
22768;SDS011;13001;51.968;5.918;2023-01-15T00:52:46;136.50;;;127.50;;
22768;SDS011;13001;51.968;5.918;2023-01-15T00:55:13;141.33;;;132.33;;
22768;SDS011;13001;51.968;5.918;2023-01-15T00:57:41;111.97;;;105.13;;
22768;SDS011;13001;51.968;5.918;2023-01-15T01:00:09;110.97;;;103.57;;
22768;SDS011;13001;51.968;5.918;2023-01-15T01:02:37;107.77;;;101.20;;
22768;SDS011;13001;51.968;5.918;2023-01-15T01:05:06;111.27;;;103.77;;
22768;SDS011;13001;51.968;5.918;2023-01-15T01:07:33;116.90;;;108.40;;
22768;SDS011;13001;51.968;5.918;2023-01-15T01:10:01;117.23;;;109.80;;
22768;SDS011;13001;51.968;5.918;2023-01-15T01:12:28;128.63;;;120.37;;
22768;SDS011;13001;51.968;5.918;2023-01-15T01:14:55;141.27;;;131.43;;
22768;SDS011;13001;51.968;5.918;2023-01-15T01:17:22;149.00;;;138.93;;
22768;SDS011;13001;51.968;5.918;2023-01-15T01:19:50;154.00;;;144.30;;
22768;SDS011;13001;51.968;5.918;2023-01-15T01:22:17;175.17;;;163.67;;
22768;SDS011;13001;51.968;5.918;2023-01-15T01:24:44;176.23;;;164.33;;
22768;SDS011;13001;51.968;5.918;2023-01-15T01:27:11;170.03;;;158.90;;
22768;SDS011;13001;51.968;5.918;2023-01-15T01:29:39;167.33;;;156.80;;
22768;SDS011;13001;51.968;5.918;2023-01-15T01:32:06;177.53;;;165.83;;
22768;SDS011;13001;51.968;5.918;2023-01-15T01:34:33;156.33;;;146.03;;
22768;SDS011;13001;51.968;5.918;2023-01-15T01:37:01;158.97;;;148.50;;
22768;SDS011;13001;51.968;5.918;2023-01-15T01:39:28;164.60;;;154.23;;
22768;SDS011;13001;51.968;5.918;2023-01-15T01:41:55;175.90;;;164.63;;
22768;SDS011;13001;51.968;5.918;2023-01-15T01:47:00;178.23;;;166.47;;
22768;SDS011;13001;51.968;5.918;2023-01-15T01:49:29;188.03;;;175.87;;
22768;SDS011;13001;51.968;5.918;2023-01-15T01:52:04;195.30;;;182.60;;
22768;SDS011;13001;51.968;5.918;2023-01-15T01:54:28;186.33;;;174.23;;
22768;SDS011;13001;51.968;5.918;2023-01-15T01:56:56;185.70;;;173.37;;
22768;SDS011;13001;51.968;5.918;2023-01-15T01:59:24;191.87;;;178.97;;
22768;SDS011;13001;51.968;5.918;2023-01-15T02:01:51;191.23;;;178.87;;
22768;SDS011;13001;51.968;5.918;2023-01-15T02:04:19;197.20;;;184.47;;
22768;SDS011;13001;51.968;5.918;2023-01-15T02:06:47;179.03;;;167.33;;
22768;SDS011;13001;51.968;5.918;2023-01-15T02:09:14;174.07;;;162.90;;
22768;SDS011;13001;51.968;5.918;2023-01-15T02:11:42;181.52;;;169.00;;
22768;SDS011;13001;51.968;5.918;2023-01-15T02:14:16;227.50;;;213.47;;
22768;SDS011;13001;51.968;5.918;2023-01-15T02:16:59;95.50;;;89.20;;
22768;SDS011;13001;51.968;5.918;2023-01-15T02:24:59;110.97;;;103.93;;
22768;SDS011;13001;51.968;5.918;2023-01-15T02:27:25;104.47;;;97.13;;
22768;SDS011;13001;51.968;5.918;2023-01-15T02:30:05;96.20;;;90.20;;
22768;SDS011;13001;51.968;5.918;2023-01-15T02:32:38;95.80;;;89.90;;
22768;SDS011;13001;51.968;5.918;2023-01-15T02:35:08;102.53;;;96.10;;
22768;SDS011;13001;51.968;5.918;2023-01-15T02:37:36;106.03;;;99.03;;
22768;SDS011;13001;51.968;5.918;2023-01-15T02:40:04;111.43;;;104.13;;
22768;SDS011;13001;51.968;5.918;2023-01-15T02:42:32;123.90;;;116.20;;
22768;SDS011;13001;51.968;5.918;2023-01-15T02:45:01;125.93;;;117.67;;
22768;SDS011;13001;51.968;5.918;2023-01-15T02:47:30;131.67;;;123.43;;
22768;SDS011;13001;51.968;5.918;2023-01-15T02:49:59;148.60;;;139.17;;
22768;SDS011;13001;51.968;5.918;2023-01-15T02:52:32;153.87;;;143.73;;
22768;SDS011;13001;51.968;5.918;2023-01-15T02:54:57;162.83;;;152.53;;
22768;SDS011;13001;51.968;5.918;2023-01-15T02:57:25;169.20;;;158.40;;
22768;SDS011;13001;51.968;5.918;2023-01-15T02:59:53;178.73;;;167.10;;
22768;SDS011;13001;51.968;5.918;2023-01-15T03:02:23;194.23;;;181.57;;
22768;SDS011;13001;51.968;5.918;2023-01-15T03:04:55;195.17;;;182.43;;
22768;SDS011;13001;51.968;5.918;2023-01-15T03:07:24;209.53;;;196.20;;
22768;SDS011;13001;51.968;5.918;2023-01-15T03:09:52;206.53;;;193.17;;
22768;SDS011;13001;51.968;5.918;2023-01-15T03:12:23;225.83;;;211.40;;
22768;SDS011;13001;51.968;5.918;2023-01-15T03:15:02;206.53;;;193.50;;
22768;SDS011;13001;51.968;5.918;2023-01-15T03:17:34;200.03;;;187.43;;
22768;SDS011;13001;51.968;5.918;2023-01-15T03:20:02;222.07;;;208.20;;
22768;SDS011;13001;51.968;5.918;2023-01-15T03:22:30;228.63;;;214.57;;
22768;SDS011;13001;51.968;5.918;2023-01-15T03:27:27;204.73;;;191.93;;
22768;SDS011;13001;51.968;5.918;2023-01-15T03:30:18;199.43;;;187.10;;
22768;SDS011;13001;51.968;5.918;2023-01-15T03:32:23;190.60;;;178.17;;
22768;SDS011;13001;51.968;5.918;2023-01-15T03:34:52;202.93;;;190.23;;
22768;SDS011;13001;51.968;5.918;2023-01-15T03:37:20;183.43;;;172.00;;
22768;SDS011;13001;51.968;5.918;2023-01-15T03:39:48;193.80;;;181.57;;
22768;SDS011;13001;51.968;5.918;2023-01-15T03:42:26;176.83;;;165.43;;
22768;SDS011;13001;51.968;5.918;2023-01-15T03:49:59;187.87;;;176.43;;
22768;SDS011;13001;51.968;5.918;2023-01-15T03:52:35;196.37;;;184.20;;
22768;SDS011;13001;51.968;5.918;2023-01-15T03:55:09;205.50;;;192.77;;
22768;SDS011;13001;51.968;5.918;2023-01-15T03:57:49;200.43;;;187.43;;
22768;SDS011;13001;51.968;5.918;2023-01-15T04:00:21;197.20;;;185.27;;
22768;SDS011;13001;51.968;5.918;2023-01-15T04:02:48;196.27;;;184.30;;
22768;SDS011;13001;51.968;5.918;2023-01-15T04:05:17;191.67;;;179.53;;
22768;SDS011;13001;51.968;5.918;2023-01-15T04:07:44;211.63;;;198.47;;
22768;SDS011;13001;51.968;5.918;2023-01-15T04:10:13;197.40;;;184.87;;
22768;SDS011;13001;51.968;5.918;2023-01-15T04:12:40;209.93;;;197.23;;
22768;SDS011;13001;51.968;5.918;2023-01-15T04:15:09;211.63;;;198.70;;
22768;SDS011;13001;51.968;5.918;2023-01-15T04:17:36;200.93;;;188.27;;
22768;SDS011;13001;51.968;5.918;2023-01-15T04:20:04;207.00;;;194.10;;
22768;SDS011;13001;51.968;5.918;2023-01-15T04:22:31;204.17;;;191.90;;
22768;SDS011;13001;51.968;5.918;2023-01-15T04:24:58;206.77;;;193.60;;
22768;SDS011;13001;51.968;5.918;2023-01-15T04:27:26;215.33;;;202.50;;
22768;SDS011;13001;51.968;5.918;2023-01-15T04:29:53;214.87;;;201.30;;
22768;SDS011;13001;51.968;5.918;2023-01-15T04:32:20;210.37;;;197.03;;
22768;SDS011;13001;51.968;5.918;2023-01-15T04:34:48;208.33;;;195.50;;
22768;SDS011;13001;51.968;5.918;2023-01-15T04:37:16;214.77;;;201.73;;
22768;SDS011;13001;51.968;5.918;2023-01-15T04:39:43;206.17;;;193.70;;
22768;SDS011;13001;51.968;5.918;2023-01-15T04:42:13;208.17;;;195.30;;
22768;SDS011;13001;51.968;5.918;2023-01-15T04:44:59;214.37;;;200.97;;
22768;SDS011;13001;51.968;5.918;2023-01-15T04:47:28;200.10;;;187.83;;
22768;SDS011;13001;51.968;5.918;2023-01-15T04:49:55;212.07;;;198.83;;
22768;SDS011;13001;51.968;5.918;2023-01-15T04:52:22;197.67;;;185.53;;
22768;SDS011;13001;51.968;5.918;2023-01-15T04:54:49;206.37;;;193.20;;
22768;SDS011;13001;51.968;5.918;2023-01-15T04:57:17;195.53;;;183.03;;
22768;SDS011;13001;51.968;5.918;2023-01-15T04:59:44;197.20;;;184.77;;
22768;SDS011;13001;51.968;5.918;2023-01-15T05:02:11;207.37;;;194.23;;
22768;SDS011;13001;51.968;5.918;2023-01-15T05:04:38;204.90;;;192.07;;
22768;SDS011;13001;51.968;5.918;2023-01-15T05:07:06;206.40;;;193.87;;
22768;SDS011;13001;51.968;5.918;2023-01-15T05:09:33;201.93;;;189.40;;
22768;SDS011;13001;51.968;5.918;2023-01-15T05:12:00;201.37;;;188.97;;
22768;SDS011;13001;51.968;5.918;2023-01-15T05:14:28;195.33;;;182.53;;
22768;SDS011;13001;51.968;5.918;2023-01-15T05:16:55;193.17;;;181.17;;
22768;SDS011;13001;51.968;5.918;2023-01-15T05:19:22;191.87;;;179.87;;
22768;SDS011;13001;51.968;5.918;2023-01-15T05:21:49;194.30;;;182.60;;
22768;SDS011;13001;51.968;5.918;2023-01-15T05:24:17;186.37;;;174.27;;
22768;SDS011;13001;51.968;5.918;2023-01-15T05:26:45;185.23;;;173.63;;
22768;SDS011;13001;51.968;5.918;2023-01-15T05:29:12;192.50;;;180.50;;
22768;SDS011;13001;51.968;5.918;2023-01-15T05:31:40;191.20;;;179.00;;
22768;SDS011;13001;51.968;5.918;2023-01-15T05:34:09;191.60;;;179.90;;
22768;SDS011;13001;51.968;5.918;2023-01-15T05:36:37;193.90;;;181.63;;
22768;SDS011;13001;51.968;5.918;2023-01-15T05:39:04;197.77;;;185.57;;
22768;SDS011;13001;51.968;5.918;2023-01-15T05:41:32;208.73;;;195.77;;
22768;SDS011;13001;51.968;5.918;2023-01-15T05:44:19;205.37;;;192.80;;
22768;SDS011;13001;51.968;5.918;2023-01-15T05:46:43;202.33;;;189.73;;
22768;SDS011;13001;51.968;5.918;2023-01-15T05:49:15;216.97;;;203.43;;
22768;SDS011;13001;51.968;5.918;2023-01-15T05:51:43;202.87;;;190.37;;
22768;SDS011;13001;51.968;5.918;2023-01-15T05:54:11;213.70;;;200.33;;
22768;SDS011;13001;51.968;5.918;2023-01-15T05:56:39;200.63;;;188.23;;
22768;SDS011;13001;51.968;5.918;2023-01-15T05:59:06;199.37;;;187.13;;
22768;SDS011;13001;51.968;5.918;2023-01-15T06:01:43;198.97;;;186.13;;
22768;SDS011;13001;51.968;5.918;2023-01-15T06:04:10;206.40;;;193.23;;
22768;SDS011;13001;51.968;5.918;2023-01-15T06:06:40;204.63;;;191.77;;
22768;SDS011;13001;51.968;5.918;2023-01-15T06:09:07;193.00;;;180.67;;
22768;SDS011;13001;51.968;5.918;2023-01-15T06:11:35;191.03;;;178.97;;
22768;SDS011;13001;51.968;5.918;2023-01-15T06:14:02;191.60;;;179.03;;
22768;SDS011;13001;51.968;5.918;2023-01-15T06:16:29;187.87;;;175.63;;
22768;SDS011;13001;51.968;5.918;2023-01-15T06:19:00;188.23;;;175.90;;
22768;SDS011;13001;51.968;5.918;2023-01-15T06:21:29;180.20;;;169.03;;
22768;SDS011;13001;51.968;5.918;2023-01-15T06:23:57;178.50;;;167.33;;
22768;SDS011;13001;51.968;5.918;2023-01-15T06:26:24;176.43;;;165.27;;
22768;SDS011;13001;51.968;5.918;2023-01-15T06:28:52;179.87;;;167.67;;
22768;SDS011;13001;51.968;5.918;2023-01-15T06:31:20;173.83;;;162.50;;
22768;SDS011;13001;51.968;5.918;2023-01-15T06:33:48;171.13;;;160.13;;
22768;SDS011;13001;51.968;5.918;2023-01-15T06:36:16;167.43;;;156.50;;
22768;SDS011;13001;51.968;5.918;2023-01-15T06:38:46;177.33;;;166.10;;
22768;SDS011;13001;51.968;5.918;2023-01-15T06:41:14;163.77;;;152.93;;
22768;SDS011;13001;51.968;5.918;2023-01-15T06:44:00;168.27;;;157.53;;
22768;SDS011;13001;51.968;5.918;2023-01-15T06:46:46;179.20;;;167.67;;
22768;SDS011;13001;51.968;5.918;2023-01-15T06:49:32;172.47;;;161.63;;
22768;SDS011;13001;51.968;5.918;2023-01-15T06:52:00;167.37;;;156.73;;
22768;SDS011;13001;51.968;5.918;2023-01-15T06:54:27;177.53;;;166.23;;
22768;SDS011;13001;51.968;5.918;2023-01-15T06:56:55;178.83;;;167.43;;
22768;SDS011;13001;51.968;5.918;2023-01-15T06:59:22;169.10;;;158.03;;
22768;SDS011;13001;51.968;5.918;2023-01-15T07:01:49;175.50;;;163.80;;
22768;SDS011;13001;51.968;5.918;2023-01-15T07:04:17;438.67;;;408.00;;
22768;SDS011;13001;51.968;5.918;2023-01-15T07:06:44;180.00;;;168.63;;
22768;SDS011;13001;51.968;5.918;2023-01-15T07:09:11;186.37;;;174.33;;
22768;SDS011;13001;51.968;5.918;2023-01-15T07:11:38;555.47;;;515.00;;
22768;SDS011;13001;51.968;5.918;2023-01-15T07:14:07;624.97;;;577.07;;
22768;SDS011;13001;51.968;5.918;2023-01-15T07:16:35;594.63;;;550.00;;
22768;SDS011;13001;51.968;5.918;2023-01-15T07:19:02;536.60;;;496.70;;
22768;SDS011;13001;51.968;5.918;2023-01-15T07:21:30;594.87;;;549.37;;
22768;SDS011;13001;51.968;5.918;2023-01-15T07:23:57;602.73;;;557.37;;
22768;SDS011;13001;51.968;5.918;2023-01-15T07:26:25;594.77;;;550.27;;
22768;SDS011;13001;51.968;5.918;2023-01-15T07:28:53;586.03;;;542.17;;
22768;SDS011;13001;51.968;5.918;2023-01-15T07:31:20;635.17;;;586.17;;
22768;SDS011;13001;51.968;5.918;2023-01-15T07:33:47;614.80;;;567.63;;
22768;SDS011;13001;51.968;5.918;2023-01-15T07:36:15;600.67;;;555.20;;
22768;SDS011;13001;51.968;5.918;2023-01-15T07:38:42;628.67;;;580.63;;
22768;SDS011;13001;51.968;5.918;2023-01-15T07:41:09;660.80;;;609.70;;
22768;SDS011;13001;51.968;5.918;2023-01-15T07:43:55;651.70;;;601.63;;
22768;SDS011;13001;51.968;5.918;2023-01-15T07:46:40;645.63;;;596.07;;
22768;SDS011;13001;51.968;5.918;2023-01-15T07:49:25;644.80;;;595.57;;
22768;SDS011;13001;51.968;5.918;2023-01-15T07:52:11;659.70;;;608.83;;
22768;SDS011;13001;51.968;5.918;2023-01-15T07:54:39;677.87;;;625.40;;
22768;SDS011;13001;51.968;5.918;2023-01-15T07:57:06;650.37;;;600.97;;
22768;SDS011;13001;51.968;5.918;2023-01-15T07:59:34;672.83;;;621.67;;
22768;SDS011;13001;51.968;5.918;2023-01-15T08:02:01;674.70;;;622.43;;
22768;SDS011;13001;51.968;5.918;2023-01-15T08:04:29;653.47;;;603.53;;
22768;SDS011;13001;51.968;5.918;2023-01-15T08:06:58;653.00;;;602.13;;
22768;SDS011;13001;51.968;5.918;2023-01-15T08:09:26;683.20;;;630.33;;
22768;SDS011;13001;51.968;5.918;2023-01-15T08:11:54;674.30;;;622.13;;
22768;SDS011;13001;51.968;5.918;2023-01-15T08:14:40;222.83;;;208.30;;
22768;SDS011;13001;51.968;5.918;2023-01-15T08:17:25;612.50;;;565.57;;
22768;SDS011;13001;51.968;5.918;2023-01-15T08:19:52;655.60;;;604.90;;
22768;SDS011;13001;51.968;5.918;2023-01-15T08:22:20;642.17;;;592.70;;
22768;SDS011;13001;51.968;5.918;2023-01-15T08:24:47;603.10;;;557.13;;
22768;SDS011;13001;51.968;5.918;2023-01-15T08:27:14;647.87;;;598.23;;
22768;SDS011;13001;51.968;5.918;2023-01-15T08:29:42;602.73;;;557.67;;
22768;SDS011;13001;51.968;5.918;2023-01-15T08:32:09;210.63;;;197.03;;
22768;SDS011;13001;51.968;5.918;2023-01-15T08:34:36;171.27;;;160.10;;
22768;SDS011;13001;51.968;5.918;2023-01-15T08:37:04;159.60;;;149.10;;
22768;SDS011;13001;51.968;5.918;2023-01-15T08:39:31;129.17;;;120.63;;
22768;SDS011;13001;51.968;5.918;2023-01-15T08:41:59;179.97;;;168.37;;
22768;SDS011;13001;51.968;5.918;2023-01-15T08:44:26;237.57;;;222.50;;
22768;SDS011;13001;51.968;5.918;2023-01-15T08:46:53;231.17;;;216.43;;
22768;SDS011;13001;51.968;5.918;2023-01-15T08:49:21;242.27;;;227.07;;
22768;SDS011;13001;51.968;5.918;2023-01-15T08:51:48;250.80;;;233.43;;
22768;SDS011;13001;51.968;5.918;2023-01-15T08:54:18;238.57;;;222.47;;
22768;SDS011;13001;51.968;5.918;2023-01-15T08:56:46;225.57;;;210.93;;
22768;SDS011;13001;51.968;5.918;2023-01-15T08:59:13;206.30;;;192.40;;
22768;SDS011;13001;51.968;5.918;2023-01-15T09:01:40;208.67;;;195.37;;
22768;SDS011;13001;51.968;5.918;2023-01-15T09:04:08;218.80;;;205.17;;
22768;SDS011;13001;51.968;5.918;2023-01-15T09:06:35;218.40;;;204.63;;
22768;SDS011;13001;51.968;5.918;2023-01-15T09:09:02;230.37;;;216.30;;
22768;SDS011;13001;51.968;5.918;2023-01-15T09:11:30;263.10;;;247.00;;
22768;SDS011;13001;51.968;5.918;2023-01-15T09:13:57;279.43;;;262.23;;
22768;SDS011;13001;51.968;5.918;2023-01-15T09:16:24;244.50;;;229.23;;
22768;SDS011;13001;51.968;5.918;2023-01-15T09:18:56;258.90;;;241.33;;
22768;SDS011;13001;51.968;5.918;2023-01-15T09:21:23;247.83;;;232.27;;
22768;SDS011;13001;51.968;5.918;2023-01-15T09:23:50;225.00;;;210.60;;
22768;SDS011;13001;51.968;5.918;2023-01-15T09:26:31;222.10;;;207.17;;
22768;SDS011;13001;51.968;5.918;2023-01-15T09:28:58;250.47;;;231.90;;
22768;SDS011;13001;51.968;5.918;2023-01-15T09:31:26;330.07;;;306.90;;
22768;SDS011;13001;51.968;5.918;2023-01-15T09:33:54;275.90;;;257.77;;
22768;SDS011;13001;51.968;5.918;2023-01-15T09:36:25;273.17;;;255.67;;
22768;SDS011;13001;51.968;5.918;2023-01-15T09:38:53;250.57;;;235.43;;
22768;SDS011;13001;51.968;5.918;2023-01-15T09:41:23;218.73;;;205.80;;
22768;SDS011;13001;51.968;5.918;2023-01-15T09:49:33;214.27;;;201.33;;
22768;SDS011;13001;51.968;5.918;2023-01-15T09:52:08;223.40;;;210.50;;
22768;SDS011;13001;51.968;5.918;2023-01-15T09:56:58;204.77;;;192.63;;
22768;SDS011;13001;51.968;5.918;2023-01-15T09:59:36;185.70;;;174.30;;
22768;SDS011;13001;51.968;5.918;2023-01-15T10:02:12;188.13;;;176.50;;
22768;SDS011;13001;51.968;5.918;2023-01-15T10:04:37;183.00;;;172.20;;
22768;SDS011;13001;51.968;5.918;2023-01-15T10:07:06;194.53;;;182.63;;
22768;SDS011;13001;51.968;5.918;2023-01-15T10:09:34;302.60;;;284.93;;
22768;SDS011;13001;51.968;5.918;2023-01-15T10:12:10;287.43;;;270.63;;
22768;SDS011;13001;51.968;5.918;2023-01-15T10:14:42;330.37;;;310.83;;
22768;SDS011;13001;51.968;5.918;2023-01-15T10:17:14;305.07;;;285.27;;
22768;SDS011;13001;51.968;5.918;2023-01-15T10:19:36;262.87;;;246.07;;
22768;SDS011;13001;51.968;5.918;2023-01-15T10:22:10;249.60;;;233.47;;
22768;SDS011;13001;51.968;5.918;2023-01-15T10:26:59;313.40;;;293.00;;
22768;SDS011;13001;51.968;5.918;2023-01-15T10:29:32;244.43;;;228.00;;
22768;SDS011;13001;51.968;5.918;2023-01-15T10:32:02;233.23;;;217.40;;
22768;SDS011;13001;51.968;5.918;2023-01-15T10:39:48;226.20;;;211.07;;
22768;SDS011;13001;51.968;5.918;2023-01-15T10:42:26;263.80;;;244.83;;
22768;SDS011;13001;51.968;5.918;2023-01-15T10:47:28;262.00;;;244.43;;
22768;SDS011;13001;51.968;5.918;2023-01-15T10:49:47;259.30;;;241.43;;
22768;SDS011;13001;51.968;5.918;2023-01-15T10:52:30;219.07;;;203.70;;
22768;SDS011;13001;51.968;5.918;2023-01-15T10:55:02;254.23;;;236.83;;
22768;SDS011;13001;51.968;5.918;2023-01-15T10:59:58;286.63;;;266.33;;
22768;SDS011;13001;51.968;5.918;2023-01-15T11:02:42;273.67;;;254.73;;
22768;SDS011;13001;51.968;5.918;2023-01-15T11:05:13;283.60;;;263.43;;
22768;SDS011;13001;51.968;5.918;2023-01-15T11:07:42;261.37;;;243.00;;
22768;SDS011;13001;51.968;5.918;2023-01-15T11:10:11;262.03;;;244.23;;
22768;SDS011;13001;51.968;5.918;2023-01-15T11:13:00;272.07;;;253.50;;
22768;SDS011;13001;51.968;5.918;2023-01-15T11:15:30;269.37;;;251.13;;
22768;SDS011;13001;51.968;5.918;2023-01-15T11:18:22;259.10;;;241.90;;
22768;SDS011;13001;51.968;5.918;2023-01-15T11:21:09;247.80;;;231.60;;
22768;SDS011;13001;51.968;5.918;2023-01-15T11:23:34;262.37;;;245.67;;
22768;SDS011;13001;51.968;5.918;2023-01-15T11:26:02;267.83;;;250.87;;
22768;SDS011;13001;51.968;5.918;2023-01-15T11:28:33;246.50;;;230.97;;
22768;SDS011;13001;51.968;5.918;2023-01-15T11:31:02;226.50;;;212.10;;
22768;SDS011;13001;51.968;5.918;2023-01-15T11:33:29;242.77;;;227.37;;
22768;SDS011;13001;51.968;5.918;2023-01-15T11:35:58;265.30;;;248.63;;
22768;SDS011;13001;51.968;5.918;2023-01-15T11:38:27;233.40;;;218.63;;
22768;SDS011;13001;51.968;5.918;2023-01-15T11:40:56;228.63;;;214.60;;
22768;SDS011;13001;51.968;5.918;2023-01-15T11:43:25;258.07;;;241.87;;
22768;SDS011;13001;51.968;5.918;2023-01-15T11:46:24;259.53;;;242.80;;
22768;SDS011;13001;51.968;5.918;2023-01-15T11:48:53;275.13;;;257.30;;
22768;SDS011;13001;51.968;5.918;2023-01-15T11:51:43;262.40;;;245.07;;
22768;SDS011;13001;51.968;5.918;2023-01-15T11:54:11;263.07;;;246.03;;
22768;SDS011;13001;51.968;5.918;2023-01-15T11:56:43;281.53;;;263.43;;
22768;SDS011;13001;51.968;5.918;2023-01-15T11:59:15;278.47;;;260.77;;
22768;SDS011;13001;51.968;5.918;2023-01-15T12:04:23;238.43;;;223.50;;
22768;SDS011;13001;51.968;5.918;2023-01-15T12:06:51;284.10;;;265.97;;
22768;SDS011;13001;51.968;5.918;2023-01-15T12:14:32;308.63;;;288.00;;
22768;SDS011;13001;51.968;5.918;2023-01-15T12:19:37;278.50;;;260.30;;
22768;SDS011;13001;51.968;5.918;2023-01-15T12:22:07;278.73;;;259.73;;
22768;SDS011;13001;51.968;5.918;2023-01-15T12:27:14;296.50;;;275.90;;
22768;SDS011;13001;51.968;5.918;2023-01-15T12:29:50;270.53;;;253.33;;
22768;SDS011;13001;51.968;5.918;2023-01-15T12:32:18;271.60;;;254.57;;
22768;SDS011;13001;51.968;5.918;2023-01-15T12:34:51;288.93;;;270.83;;
22768;SDS011;13001;51.968;5.918;2023-01-15T12:37:22;306.97;;;287.43;;
22768;SDS011;13001;51.968;5.918;2023-01-15T12:42:35;320.97;;;300.17;;
22768;SDS011;13001;51.968;5.918;2023-01-15T12:45:23;314.17;;;293.97;;
22768;SDS011;13001;51.968;5.918;2023-01-15T12:47:57;285.13;;;266.50;;
22768;SDS011;13001;51.968;5.918;2023-01-15T12:50:28;261.07;;;244.23;;
22768;SDS011;13001;51.968;5.918;2023-01-15T12:58:27;221.90;;;206.40;;
22768;SDS011;13001;51.968;5.918;2023-01-15T13:01:00;217.37;;;201.93;;
22768;SDS011;13001;51.968;5.918;2023-01-15T13:03:22;199.77;;;186.07;;
22768;SDS011;13001;51.968;5.918;2023-01-15T13:05:53;185.40;;;172.63;;
22768;SDS011;13001;51.968;5.918;2023-01-15T13:10:52;141.23;;;131.53;;
22768;SDS011;13001;51.968;5.918;2023-01-15T13:13:20;175.23;;;162.63;;
22768;SDS011;13001;51.968;5.918;2023-01-15T13:16:08;185.73;;;172.60;;
22768;SDS011;13001;51.968;5.918;2023-01-15T13:21:21;184.90;;;171.17;;
22768;SDS011;13001;51.968;5.918;2023-01-15T13:23:43;159.70;;;147.90;;
22768;SDS011;13001;51.968;5.918;2023-01-15T13:26:15;197.70;;;183.77;;
22768;SDS011;13001;51.968;5.918;2023-01-15T13:31:17;167.13;;;155.33;;
22768;SDS011;13001;51.968;5.918;2023-01-15T13:33:42;156.03;;;144.73;;
22768;SDS011;13001;51.968;5.918;2023-01-15T13:36:13;168.30;;;155.73;;
22768;SDS011;13001;51.968;5.918;2023-01-15T13:38:42;262.03;;;240.53;;
22768;SDS011;13001;51.968;5.918;2023-01-15T13:41:11;157.60;;;145.97;;
22768;SDS011;13001;51.968;5.918;2023-01-15T13:43:40;191.27;;;177.57;;
22768;SDS011;13001;51.968;5.918;2023-01-15T13:46:12;165.97;;;153.70;;
22768;SDS011;13001;51.968;5.918;2023-01-15T13:48:41;167.10;;;155.03;;
22768;SDS011;13001;51.968;5.918;2023-01-15T13:51:20;152.03;;;141.57;;
22768;SDS011;13001;51.968;5.918;2023-01-15T13:53:38;175.90;;;163.47;;
22768;SDS011;13001;51.968;5.918;2023-01-15T13:58:37;148.13;;;137.60;;
22768;SDS011;13001;51.968;5.918;2023-01-15T14:03:33;157.17;;;146.47;;
22768;SDS011;13001;51.968;5.918;2023-01-15T14:06:02;140.83;;;131.80;;
22768;SDS011;13001;51.968;5.918;2023-01-15T14:08:43;123.07;;;115.13;;
22768;SDS011;13001;51.968;5.918;2023-01-15T14:16:42;99.47;;;93.40;;
22768;SDS011;13001;51.968;5.918;2023-01-15T14:21:56;95.47;;;89.37;;
22768;SDS011;13001;51.968;5.918;2023-01-15T14:27:14;91.57;;;85.97;;
22768;SDS011;13001;51.968;5.918;2023-01-15T14:32:36;117.30;;;109.77;;
22768;SDS011;13001;51.968;5.918;2023-01-15T14:35:00;121.83;;;113.40;;
22768;SDS011;13001;51.968;5.918;2023-01-15T14:37:48;122.90;;;115.27;;
22768;SDS011;13001;51.968;5.918;2023-01-15T14:40:25;121.73;;;113.77;;
22768;SDS011;13001;51.968;5.918;2023-01-15T14:42:53;122.10;;;114.23;;
22768;SDS011;13001;51.968;5.918;2023-01-15T14:45:28;134.47;;;125.70;;
22768;SDS011;13001;51.968;5.918;2023-01-15T14:48:01;137.17;;;128.53;;
22768;SDS011;13001;51.968;5.918;2023-01-15T14:50:27;136.80;;;127.87;;
22768;SDS011;13001;51.968;5.918;2023-01-15T14:52:59;138.10;;;129.10;;
22768;SDS011;13001;51.968;5.918;2023-01-15T14:55:27;135.67;;;126.90;;
22768;SDS011;13001;51.968;5.918;2023-01-15T14:57:56;134.57;;;125.80;;
22768;SDS011;13001;51.968;5.918;2023-01-15T15:00:25;145.23;;;136.00;;
22768;SDS011;13001;51.968;5.918;2023-01-15T15:02:52;153.37;;;143.50;;
22768;SDS011;13001;51.968;5.918;2023-01-15T15:05:20;159.33;;;148.93;;
22768;SDS011;13001;51.968;5.918;2023-01-15T15:07:48;143.20;;;134.10;;
22768;SDS011;13001;51.968;5.918;2023-01-15T15:10:22;145.17;;;135.93;;
22768;SDS011;13001;51.968;5.918;2023-01-15T15:13:04;142.57;;;132.87;;
22768;SDS011;13001;51.968;5.918;2023-01-15T15:18:23;149.17;;;139.77;;
22768;SDS011;13001;51.968;5.918;2023-01-15T15:21:21;136.83;;;127.90;;
22768;SDS011;13001;51.968;5.918;2023-01-15T15:23:37;149.10;;;139.30;;
22768;SDS011;13001;51.968;5.918;2023-01-15T15:26:01;144.77;;;134.93;;
22768;SDS011;13001;51.968;5.918;2023-01-15T15:28:24;154.27;;;144.33;;
22768;SDS011;13001;51.968;5.918;2023-01-15T15:30:52;164.83;;;154.13;;
22768;SDS011;13001;51.968;5.918;2023-01-15T15:33:20;169.27;;;158.30;;
22768;SDS011;13001;51.968;5.918;2023-01-15T15:35:52;170.33;;;159.03;;
22768;SDS011;13001;51.968;5.918;2023-01-15T15:38:20;187.27;;;175.00;;